Weather reports worldwide

Advertisment
Brocken, Germany (10453): temperature & dewpoint: 07.07.2020 06:00:00 - 13.07.2020 06:00:00 (CEST)Brocken, Germany (10453): temperature 5cm: 07.07.2020 06:00:00 - 13.07.2020 06:00:00 (CEST)Brocken, Germany (10453): wind speed & gusts: 07.07.2020 06:00:00 - 13.07.2020 06:00:00 (CEST)Brocken, Germany (10453): wind direction: 07.07.2020 06:00:00 - 13.07.2020 06:00:00 (CEST)Brocken, Germany (10453): visibility: 07.07.2020 06:00:00 - 13.07.2020 06:00:00 (CEST)Brocken, Germany (10453): sunshine duration: 07.07.2020 06:00:00 - 13.07.2020 06:00:00 (CEST)
Date & Time tt [°C] td [°C] tt 5cm [°C] ff [km/h] ff [kn] fx [km/h] fx [kn] dd vv [km] sd [min]
13.07.2020 06:00:00 7,7 3,3 3,4 13 7 15 8 S 72 26
13.07.2020 05:00:00 6,9 3,5 2,3 10 5 11 6 S 75 0
13.07.2020 04:00:00 7,1 3,5 1,5 9 5 10 5 S 75 0
13.07.2020 03:00:00 7,8 3,4 -0,6 4 2 10 5 SW 75 0
13.07.2020 02:00:00 7,5 3,7 3,6 8 4 13 7 ESE 75 0
13.07.2020 01:00:00 7,5 4,0 2,8 11 6 14 7 E 75 0
13.07.2020 00:00:00 8,4 3,4 2,9 13 7 17 9 NNE 75 0
12.07.2020 23:00:00 8,6 3,3 4,3 16 9 21 12 NNE 75 0
12.07.2020 22:00:00 8,7 3,4 5,3 19 11 22 12 N 75 8
12.07.2020 21:00:00 9,3 3,9 6,7 17 9 22 12 N 75 55
12.07.2020 20:00:00 10,2 4,1 9,9 16 8 25 14 N 75 59
12.07.2020 19:00:00 10,6 3,9 11,1 22 12 29 16 N 71 36
12.07.2020 18:00:00 11,9 4,0 18,9 17 9 27 15 N 75 58
12.07.2020 17:00:00 11,9 5,4 19,6 18 10 28 15 N 75 19
12.07.2020 16:00:00 11,2 4,3 13,5 18 10 25 13 NW 75 8
12.07.2020 15:00:00 11,5 4,4 14,7 21 11 28 15 NNW 75 42
12.07.2020 14:00:00 10,7 6,1 17,9 16 9 25 13 NNW 75 8
12.07.2020 13:00:00 10,0 4,6 12,7 16 9 26 14 NW 75 21
12.07.2020 12:00:00 9,9 5,5 11,4 12 7 23 13 NW 72 14
12.07.2020 11:00:00 10,3 4,7 11,1 11 6 21 11 WNW 57 33
12.07.2020 10:00:00 8,3 6,0 12,9 10 5 16 9 NNW 45 10
12.07.2020 09:00:00 7,6 5,4 9,1 9 5 16 9 N 69 8
12.07.2020 08:00:00 6,4 5,3 7,1 14 7 23 13 N 30 0
12.07.2020 07:00:00 6,2 4,9 6,4 16 9 20 11 N 75 32
12.07.2020 06:00:00 5,4 4,2 3,5 19 10 22 12 NNW 73 2
12.07.2020 05:00:00 5,4 5,1 4,0 20 11 23 12 NW 16 0
12.07.2020 04:00:00 5,7 4,9 4,0 18 10 23 12 NW 49 0
12.07.2020 03:00:00 6,3 3,8 4,0 16 8 22 12 NW 75 0
12.07.2020 02:00:00 6,5 3,8 5,3 21 11 23 12 NW 72 0
12.07.2020 01:00:00 7,0 3,9 5,8 19 10 29 15 WNW 75 0
12.07.2020 00:00:00 6,2 5,9 6,3 24 13 31 17 WNW 9 0
11.07.2020 23:00:00 6,6 4,9 5,8 23 12 27 14 NNW 75 0
11.07.2020 22:00:00 6,8 5,3 4,9 16 8 19 10 NW 57 10
11.07.2020 21:00:00 7,1 6,7 7,6 13 7 29 16 NNW 0,4 1
11.07.2020 20:00:00 9,0 5,3 9,6 14 8 23 12 NW 59 12
11.07.2020 19:00:00 10,4 6,2 13,0 9 5 27 15 NNW 67 30
11.07.2020 18:00:00 10,5 2,4 11,0 23 13 30 16 W 75 22
11.07.2020 17:00:00 10,3 3,5 12,3 20 11 29 16 W 75 27
11.07.2020 16:00:00 10,2 4,2 14,8 15 8 30 16 NW 75 22
11.07.2020 15:00:00 9,9 3,7 17,0 19 10 35 19 WNW 62 18
11.07.2020 14:00:00 8,8 5,0 10,4 21 12 32 17 NNW 75 13
11.07.2020 13:00:00 10,4 5,8 18,9 17 9 27 15 NW 75 41
11.07.2020 12:00:00 8,3 3,9 10,6 19 10 29 15 NW 75 26
11.07.2020 11:00:00 8,7 4,3 12,1 17 9 28 15 NW 62 32
11.07.2020 10:00:00 6,6 4,5 8,0 20 11 30 16 WNW 74 33
11.07.2020 09:00:00 5,9 5,5 7,7 23 13 35 19 WNW 0,1 40
11.07.2020 08:00:00 4,8 4,3 6,0 26 14 31 17 WNW 0,1 51
11.07.2020 07:00:00 4,1 3,3 4,0 25 13 35 19 NW 0,4 60
11.07.2020 06:00:00 3,3 2,3 2,5 26 14 35 19 NW 68 25
11.07.2020 05:00:00 3,5 3,5 3,2 27 15 38 21 NW 0,4 0
11.07.2020 04:00:00 4,2 4,2 4,7 26 14 38 21 NW 0,1 0
11.07.2020 03:00:00 4,6 4,6 5,0 31 17 39 21 NNW 0,1 0
11.07.2020 02:00:00 4,7 4,7 5,2 25 13 33 18 NW 0,1 0
11.07.2020 01:00:00 4,5 4,5 4,9 22 12 35 19 WNW 0,1 0
11.07.2020 00:00:00 5,7 5,7 6,1 26 14 39 21 WNW 0,1 0
10.07.2020 23:00:00 6,0 6,0 6,4 22 12 38 21 WNW 0,1 0
10.07.2020 22:00:00 6,2 6,2 6,6 21 11 39 21 NW 0,1 0
10.07.2020 21:00:00 6,8 6,8 7,2 27 15 50 27 NW - 0
10.07.2020 20:00:00 6,7 6,7 7,3 31 17 55 30 NW 0,1 0
10.07.2020 19:00:00 7,3 7,3 7,9 34 19 55 30 WNW - 0
10.07.2020 18:00:00 7,8 7,8 8,3 41 22 76 41 WNW - 0
10.07.2020 17:00:00 8,9 8,9 9,5 55 30 71 39 W - 0
10.07.2020 16:00:00 11,0 11,0 11,9 50 27 80 43 WSW 0,1 1
10.07.2020 15:00:00 11,8 11,1 15,1 60 33 81 44 WSW 19 6
10.07.2020 14:00:00 11,7 10,8 13,1 66 36 88 48 WSW 27 16
10.07.2020 13:00:00 12,1 11,2 14,4 66 36 84 45 WSW 19 1
10.07.2020 12:00:00 12,0 11,9 12,9 57 31 87 47 WSW 0,2 0
10.07.2020 11:00:00 12,4 12,4 13,8 50 27 66 35 WSW 0,1 1
10.07.2020 10:00:00 12,7 12,2 14,3 50 27 63 34 SW 14 11
10.07.2020 09:00:00 12,2 11,2 13,1 47 26 59 32 SSW 45 0
10.07.2020 08:00:00 11,6 10,4 11,6 50 27 59 32 SSW 56 0
10.07.2020 07:00:00 11,0 9,7 10,7 48 26 54 29 SSW 52 0
10.07.2020 06:00:00 10,7 10,7 10,8 40 22 58 31 SW 0,1 0
10.07.2020 05:00:00 11,2 9,4 10,7 47 25 55 30 WSW 75 0
10.07.2020 04:00:00 10,6 10,5 10,4 42 23 53 28 WSW 0,9 0
10.07.2020 03:00:00 10,7 10,7 10,6 43 23 68 37 W 0,5 0
10.07.2020 02:00:00 10,7 10,7 10,5 54 29 71 38 W 9 0
10.07.2020 01:00:00 10,9 10,9 10,8 55 30 72 39 W 0,7 0
10.07.2020 00:00:00 11,5 11,5 11,7 57 31 77 42 WSW 0,1 0
09.07.2020 23:00:00 11,8 11,8 12,0 55 30 74 40 WSW - 0
09.07.2020 22:00:00 11,7 11,7 11,8 56 30 75 41 WSW 0,1 0
09.07.2020 21:00:00 11,7 11,7 11,9 61 33 80 43 WSW 0,1 0
09.07.2020 20:00:00 11,8 11,8 12,1 59 32 80 43 WSW - 0
09.07.2020 19:00:00 11,9 11,9 12,5 56 31 83 45 WSW 0,1 0
09.07.2020 18:00:00 12,5 12,5 13,0 60 32 79 43 WSW 0,4 1
09.07.2020 17:00:00 12,5 12,5 13,6 61 33 83 45 WSW 0,1 0
09.07.2020 16:00:00 11,9 11,9 13,2 67 36 92 50 WSW 0,2 4
09.07.2020 15:00:00 11,9 11,9 12,6 53 29 79 42 WSW 0,1 0
09.07.2020 14:00:00 11,6 11,6 12,4 54 29 77 42 WSW 0,1 0
09.07.2020 13:00:00 11,4 11,4 12,3 53 28 78 42 WSW - 0
09.07.2020 12:00:00 11,0 11,0 12,3 56 31 75 41 WSW - 0
09.07.2020 11:00:00 10,3 10,3 11,2 51 28 66 36 WSW - 0
09.07.2020 10:00:00 9,8 9,8 10,8 44 24 55 30 SW 0,1 0
09.07.2020 09:00:00 9,3 9,3 10,2 35 19 43 23 SW 0,1 0
09.07.2020 08:00:00 9,2 9,2 10,0 34 18 43 23 SSW 0,1 0
09.07.2020 07:00:00 8,8 8,8 9,3 37 20 45 25 SSW 0,1 0
09.07.2020 06:00:00 8,6 8,6 8,9 29 16 43 23 SW - 0
09.07.2020 05:00:00 8,5 8,5 8,7 34 19 46 25 SW - 0
09.07.2020 04:00:00 8,0 8,0 8,3 31 17 44 24 SW 0,1 0
09.07.2020 03:00:00 8,0 8,0 8,3 31 17 43 23 SW - 0
09.07.2020 02:00:00 8,2 8,2 8,5 31 17 41 22 SW - 0
09.07.2020 01:00:00 8,1 8,1 8,4 28 15 37 20 WSW - 0
09.07.2020 00:00:00 7,9 7,9 8,2 31 17 36 19 WSW 0,1 0
08.07.2020 23:00:00 8,0 8,0 8,3 24 13 34 18 WSW - 0
08.07.2020 22:00:00 7,8 7,8 8,1 26 14 34 19 WSW - 0
08.07.2020 21:00:00 7,7 7,7 8,1 26 14 38 20 WSW 0,1 0
08.07.2020 20:00:00 7,6 7,6 8,1 32 18 45 24 W 0,1 0
08.07.2020 19:00:00 7,6 7,6 8,4 32 17 40 22 WSW 0,1 0
08.07.2020 18:00:00 7,5 7,5 8,2 22 12 37 20 W 0,1 0
08.07.2020 17:00:00 7,4 7,4 8,3 31 17 42 23 W - 0
08.07.2020 16:00:00 7,4 7,4 8,4 26 14 36 20 W 0,1 0
08.07.2020 15:00:00 7,0 7,0 8,0 26 14 45 24 W 0,1 0
08.07.2020 14:00:00 6,9 6,9 8,2 24 13 43 23 WSW - 0
08.07.2020 13:00:00 6,7 6,7 7,9 18 10 34 18 WSW 0,1 0
08.07.2020 12:00:00 6,3 6,3 7,5 24 13 37 20 W 0,1 0
08.07.2020 11:00:00 6,5 6,3 9,2 28 15 39 21 W 0,1 0
08.07.2020 10:00:00 6,1 6,1 7,5 27 15 36 19 W 0,1 0
08.07.2020 09:00:00 5,8 5,8 6,8 23 13 31 17 W 0,1 0
08.07.2020 08:00:00 5,5 5,5 6,4 23 12 36 20 WSW 0,1 0
08.07.2020 07:00:00 5,6 5,6 6,1 25 13 37 20 WSW 0,1 0
08.07.2020 06:00:00 5,7 5,7 6,1 30 16 45 24 WSW 0,1 0
08.07.2020 05:00:00 5,5 5,5 5,9 37 20 50 27 WSW - 0
08.07.2020 04:00:00 5,5 5,5 5,9 34 19 44 24 WSW 0,1 0
08.07.2020 03:00:00 5,6 5,6 5,9 35 19 43 23 WSW 0,2 0
08.07.2020 02:00:00 5,9 5,9 6,3 30 16 45 24 W 0,1 0
08.07.2020 01:00:00 6,1 6,1 6,5 29 15 48 26 W 0,1 0
08.07.2020 00:00:00 6,0 6,0 6,4 35 19 42 23 W 0,1 0
07.07.2020 23:00:00 6,6 6,6 7,0 27 14 37 20 W - 0
07.07.2020 22:00:00 6,5 6,5 6,9 31 17 51 27 WNW - 0
07.07.2020 21:00:00 6,3 5,7 6,4 39 21 55 30 W 19 0
07.07.2020 20:00:00 6,5 6,5 6,9 39 21 54 29 W 0,1 0
07.07.2020 19:00:00 8,8 4,3 8,8 36 19 49 26 WSW 75 0
07.07.2020 18:00:00 9,4 3,7 10,8 39 21 54 29 WSW 75 32
07.07.2020 17:00:00 10,1 3,8 16,3 40 21 51 28 WSW 60 39
07.07.2020 16:00:00 9,8 3,7 12,4 32 18 47 26 WSW 75 17
07.07.2020 15:00:00 10,5 4,5 17,2 32 17 47 25 WSW 55 34
07.07.2020 14:00:00 9,3 3,0 12,9 33 18 47 25 W 75 37
07.07.2020 13:00:00 7,8 4,1 10,6 32 18 46 25 W 54 22
07.07.2020 12:00:00 7,1 4,3 12,0 34 18 44 24 W 40 19
07.07.2020 11:00:00 6,6 3,9 9,6 31 17 43 23 W 50 26
07.07.2020 10:00:00 5,7 3,9 9,1 30 16 40 21 W 31 19
07.07.2020 09:00:00 4,3 3,7 5,8 24 13 46 25 W 16 12
07.07.2020 08:00:00 4,2 4,2 5,4 37 20 49 26 W 0,1 6
07.07.2020 07:00:00 3,8 3,8 4,8 32 18 49 27 W 0,1 0
07.07.2020 06:00:00 3,8 3,8 4,3 37 20 49 26 WNW 0,1 0

tt = temperature
td = dewpoint
tt 5cm = temperature 5cm
ff = wind speed
fx = gusts
dd = wind direction
vv = visibility
sd = sunshine duration

Next stations